Time;durP1;ratioP1;P1;durP2;ratioP2;P2;SDS_P1;SDS_P2;PMS_P1;PMS_P2;Temp;Humidity;BMP_temperature;BMP_pressure;BME280_temperature;BME280_humidity;BME280_pressure;Samples;Min_cycle;Max_cycle;Signal;HPM_P1;HPM_P2
2023/03/07 00:02:20;;;;;;;10.20;6.88;;;5.30;63.00;;;;;;4967547;28;20043;-60
2023/03/07 00:04:45;;;;;;;12.75;8.00;;;5.30;63.00;;;;;;4968985;28;20041;-60
2023/03/07 00:07:12;;;;;;;12.25;7.22;;;5.20;62.90;;;;;;4970023;28;20034;-59
2023/03/07 00:09:37;;;;;;;11.80;7.20;;;5.20;62.80;;;;;;4964398;28;20043;-60
2023/03/07 00:12:03;;;;;;;11.80;7.43;;;5.20;62.80;;;;;;4963363;28;20027;-60
2023/03/07 00:14:29;;;;;;;11.63;6.80;;;5.20;62.80;;;;;;4968567;28;20038;-58
2023/03/07 00:16:54;;;;;;;11.52;7.18;;;5.20;62.80;;;;;;4965471;28;20042;-60
2023/03/07 00:19:20;;;;;;;12.15;7.25;;;5.20;62.80;;;;;;4971063;28;20042;-61
2023/03/07 00:21:46;;;;;;;11.10;6.88;;;5.20;62.80;;;;;;4975609;28;20567;-57
2023/03/07 00:24:11;;;;;;;11.98;7.30;;;5.20;62.80;;;;;;4972310;28;20034;-59
2023/03/07 00:26:38;;;;;;;11.48;7.25;;;5.20;62.80;;;;;;4973137;28;20042;-61
2023/03/07 00:29:08;;;;;;;11.23;7.47;;;5.20;62.80;;;;;;4968262;28;20556;-61
2023/03/07 00:31:34;;;;;;;11.50;7.53;;;5.20;62.70;;;;;;4966509;28;20047;-60
2023/03/07 00:34:00;;;;;;;16.02;7.38;;;5.20;62.80;;;;;;4967977;28;20498;-61
2023/03/07 00:36:26;;;;;;;12.60;7.60;;;5.20;62.80;;;;;;4963975;28;20063;-61
2023/03/07 00:38:52;;;;;;;13.73;7.72;;;5.20;62.80;;;;;;4961481;28;20045;-61
2023/03/07 00:41:20;;;;;;;10.60;6.93;;;5.20;62.90;;;;;;4965176;28;20495;-61
2023/03/07 00:43:46;;;;;;;10.98;7.18;;;5.20;62.80;;;;;;4964109;28;20027;-60
2023/03/07 00:46:13;;;;;;;11.07;6.93;;;5.20;63.00;;;;;;4966428;28;20050;-61
2023/03/07 00:48:39;;;;;;;13.25;7.45;;;5.10;62.90;;;;;;4965026;28;20113;-61
2023/03/07 00:51:07;;;;;;;12.25;6.90;;;5.10;63.00;;;;;;4968922;28;20550;-59
2023/03/07 00:53:34;;;;;;;12.25;7.47;;;5.10;63.10;;;;;;4967412;28;20430;-59
2023/03/07 00:56:01;;;;;;;11.80;7.10;;;5.10;63.20;;;;;;4977107;28;20488;-60
2023/03/07 00:58:28;;;;;;;12.80;7.53;;;5.10;63.20;;;;;;4977028;28;20081;-56
2023/03/07 01:00:55;;;;;;;13.27;7.30;;;5.10;63.20;;;;;;4970862;28;20144;-60
2023/03/07 01:03:22;;;;;;;13.07;7.25;;;5.10;63.30;;;;;;4963995;28;20037;-60
2023/03/07 01:05:48;;;;;;;12.10;7.60;;;5.10;63.40;;;;;;4970503;28;20104;-59
2023/03/07 01:08:14;;;;;;;11.27;7.30;;;5.10;63.50;;;;;;4972660;28;20043;-58
2023/03/07 01:10:40;;;;;;;13.30;7.40;;;5.00;63.60;;;;;;4964778;28;20405;-60
2023/03/07 01:13:06;;;;;;;13.55;7.07;;;5.00;63.60;;;;;;4955203;28;20039;-58
2023/03/07 01:15:32;;;;;;;13.50;7.25;;;5.00;63.70;;;;;;4966733;28;20124;-60
2023/03/07 01:17:57;;;;;;;13.43;7.68;;;5.00;63.70;;;;;;4971222;28;20120;-59
2023/03/07 01:20:23;;;;;;;13.55;7.90;;;5.20;63.90;;;;;;4967929;28;20565;-60
2023/03/07 01:22:49;;;;;;;11.70;7.13;;;5.00;63.90;;;;;;4970362;28;20064;-58
2023/03/07 01:25:14;;;;;;;14.23;7.50;;;5.00;64.00;;;;;;4973976;28;20128;-61
2023/03/07 01:27:40;;;;;;;10.20;6.53;;;5.00;64.00;;;;;;4965978;28;20046;-59
2023/03/07 01:30:07;;;;;;;14.50;7.38;;;5.00;64.00;;;;;;4968161;28;20070;-60
2023/03/07 01:32:32;;;;;;;12.43;7.15;;;5.00;64.20;;;;;;4961576;28;20082;-58
2023/03/07 01:34:58;;;;;;;11.85;7.50;;;5.00;64.20;;;;;;4963117;28;20545;-61
2023/03/07 01:37:24;;;;;;;11.57;7.18;;;5.00;64.20;;;;;;4967502;28;20043;-61
2023/03/07 01:39:51;;;;;;;13.13;7.82;;;5.00;64.30;;;;;;4964767;28;20073;-61
2023/03/07 01:42:17;;;;;;;13.48;7.82;;;5.00;64.30;;;;;;4962190;28;20039;-60
2023/03/07 01:45:03;;;;;;;13.02;7.72;;;5.00;64.50;;;;;;4962087;28;20034;-60
2023/03/07 01:47:28;;;;;;;12.80;7.13;;;5.00;64.60;;;;;;4963855;28;21288;-62
2023/03/07 01:49:55;;;;;;;12.23;7.35;;;5.00;64.60;;;;;;4963578;28;20039;-60
2023/03/07 01:52:33;;;;;;;11.65;7.30;;;5.00;64.60;;;;;;4967663;28;20050;-60
2023/03/07 01:55:06;;;;;;;13.68;7.85;;;5.00;64.70;;;;;;4961451;28;20616;-59
2023/03/07 01:57:36;;;;;;;11.88;7.22;;;5.00;64.60;;;;;;4964792;28;20046;-61
2023/03/07 02:00:09;;;;;;;14.13;7.45;;;5.00;64.70;;;;;;4963730;28;20157;-60
2023/03/07 02:02:37;;;;;;;11.18;6.78;;;5.00;64.70;;;;;;4964854;28;20145;-59
2023/03/07 02:05:12;;;;;;;11.70;7.25;;;5.00;64.70;;;;;;4969925;28;20034;-60
2023/03/07 02:07:48;;;;;;;13.40;7.47;;;5.00;64.70;;;;;;4961275;28;20026;-60
2023/03/07 02:10:15;;;;;;;12.50;7.47;;;5.00;64.70;;;;;;4966975;28;20158;-59
2023/03/07 02:12:41;;;;;;;14.35;7.72;;;4.90;64.60;;;;;;4961150;28;20031;-58
2023/03/07 02:15:09;;;;;;;11.45;7.45;;;4.90;64.70;;;;;;4960307;28;20043;-61
2023/03/07 02:17:35;;;;;;;11.68;7.20;;;4.90;64.70;;;;;;4964693;28;20129;-58
2023/03/07 02:20:17;;;;;;;14.10;7.68;;;4.90;64.80;;;;;;4965383;28;21205;-59
2023/03/07 02:22:43;;;;;;;13.77;7.63;;;4.90;64.80;;;;;;4972832;28;20129;-60
2023/03/07 02:25:27;;;;;;;13.95;7.75;;;4.90;64.80;;;;;;4975258;28;20041;-58
2023/03/07 02:27:55;;;;;;;12.70;7.83;;;4.90;64.90;;;;;;4968129;28;20050;-60
2023/03/07 02:30:21;;;;;;;14.57;8.32;;;4.90;64.90;;;;;;4971358;28;20070;-59
2023/03/07 02:32:47;;;;;;;13.07;7.53;;;4.90;64.90;;;;;;4967494;28;20129;-59
2023/03/07 02:35:16;;;;;;;13.07;8.13;;;4.80;64.90;;;;;;4964742;28;20498;-61
2023/03/07 02:37:44;;;;;;;12.88;7.38;;;4.80;65.00;;;;;;4969295;28;20109;-60
2023/03/07 02:40:12;;;;;;;12.50;7.55;;;4.80;65.10;;;;;;4965967;28;20173;-58
2023/03/07 02:42:40;;;;;;;11.98;7.43;;;4.80;65.10;;;;;;4966986;28;20162;-60
2023/03/07 02:45:10;;;;;;;13.43;7.75;;;4.80;65.10;;;;;;4967552;28;20510;-60
2023/03/07 02:47:36;;;;;;;12.80;7.55;;;4.80;65.10;;;;;;4967300;28;20600;-59
2023/03/07 02:50:02;;;;;;;13.88;7.88;;;4.80;65.10;;;;;;4967051;28;20039;-57
2023/03/07 02:52:28;;;;;;;13.27;7.93;;;4.80;65.10;;;;;;4963313;28;20128;-61
2023/03/07 02:54:54;;;;;;;13.52;7.80;;;4.80;65.10;;;;;;4967909;28;20156;-59
2023/03/07 02:57:20;;;;;;;13.95;8.30;;;4.80;65.00;;;;;;4966628;28;20098;-59
2023/03/07 02:59:45;;;;;;;13.68;8.07;;;4.80;65.00;;;;;;4968135;28;20035;-61
2023/03/07 03:02:11;;;;;;;14.30;7.28;;;4.80;64.90;;;;;;4962336;28;20042;-61
2023/03/07 03:04:37;;;;;;;14.23;7.57;;;4.70;64.90;;;;;;4960261;28;20035;-61
2023/03/07 03:07:03;;;;;;;13.00;7.68;;;4.70;64.90;;;;;;4973434;28;20100;-61
2023/03/07 03:09:28;;;;;;;14.93;7.80;;;4.70;64.90;;;;;;4973239;28;20587;-60
2023/03/07 03:11:54;;;;;;;13.60;7.97;;;4.70;64.90;;;;;;4962373;28;20295;-59
2023/03/07 03:14:19;;;;;;;11.88;7.72;;;4.70;64.90;;;;;;4964446;28;20130;-58
2023/03/07 03:16:45;;;;;;;16.50;8.38;;;4.70;64.80;;;;;;4969217;28;20031;-60
2023/03/07 03:19:11;;;;;;;12.57;7.78;;;4.60;64.70;;;;;;4970689;28;20035;-60
2023/03/07 03:21:37;;;;;;;12.20;7.70;;;4.60;64.80;;;;;;4970077;28;20517;-59
2023/03/07 03:24:07;;;;;;;11.40;7.30;;;4.60;65.60;;;;;;4969195;28;20070;-59
2023/03/07 03:26:33;;;;;;;13.88;7.65;;;4.50;64.70;;;;;;4971749;28;20045;-59
2023/03/07 03:28:59;;;;;;;13.82;7.70;;;4.50;64.80;;;;;;4969275;28;20049;-60
2023/03/07 03:31:25;;;;;;;12.02;7.38;;;4.50;64.90;;;;;;4964474;28;20039;-60
2023/03/07 03:33:51;;;;;;;13.82;7.68;;;4.40;64.80;;;;;;4966335;28;20097;-60
2023/03/07 03:36:18;;;;;;;13.65;8.50;;;4.40;64.90;;;;;;4962711;28;20041;-62
2023/03/07 03:38:43;;;;;;;13.07;7.82;;;4.40;64.90;;;;;;4966194;28;20532;-61
2023/03/07 03:41:16;;;;;;;14.15;7.65;;;4.40;65.80;;;;;;4973237;28;20063;-61
2023/03/07 03:43:42;;;;;;;14.70;7.78;;;4.40;65.00;;;;;;4965137;28;20035;-61
2023/03/07 03:46:08;;;;;;;12.05;7.57;;;4.30;64.90;;;;;;4966040;28;20042;-59
2023/03/07 03:48:33;;;;;;;14.55;8.07;;;4.30;64.90;;;;;;4968446;28;20130;-61
2023/03/07 03:51:11;;;;;;;14.40;8.43;;;4.30;64.90;;;;;;4964697;28;20035;-61
2023/03/07 03:53:38;;;;;;;14.13;8.10;;;4.30;64.90;;;;;;4971383;28;20031;-60
2023/03/07 03:56:24;;;;;;;15.13;7.60;;;4.30;64.90;;;;;;4968124;28;20406;-61
2023/03/07 03:58:52;;;;;;;13.68;8.05;;;4.20;64.80;;;;;;4962787;28;20502;-60
2023/03/07 04:01:20;;;;;;;16.48;8.52;;;4.20;64.90;;;;;;4965063;28;20046;-61
2023/03/07 04:03:48;;;;;;;24.13;12.00;;;4.20;64.80;;;;;;4959150;28;20038;-60
2023/03/07 04:06:20;;;;;;;48.97;18.77;;;4.20;64.90;;;;;;4971508;28;20047;-59
2023/03/07 04:08:46;;;;;;;21.20;11.40;;;4.10;64.70;;;;;;4967127;28;20786;-61
2023/03/07 04:11:12;;;;;;;19.45;10.23;;;4.10;64.80;;;;;;4968678;28;20042;-61
2023/03/07 04:13:37;;;;;;;22.42;12.20;;;4.10;65.80;;;;;;4965732;28;20046;-59
2023/03/07 04:16:04;;;;;;;17.33;9.00;;;4.10;64.90;;;;;;4961521;28;20056;-61
2023/03/07 04:18:30;;;;;;;17.70;10.30;;;4.10;64.90;;;;;;4964218;28;20066;-61
2023/03/07 04:20:55;;;;;;;15.85;9.30;;;4.10;65.80;;;;;;4968395;28;20161;-61
2023/03/07 04:23:22;;;;;;;20.27;11.77;;;4.10;65.00;;;;;;4970137;28;20280;-61
2023/03/07 04:25:56;;;;;;;26.33;15.82;;;4.00;64.90;;;;;;4966575;28;20031;-58
2023/03/07 04:28:24;;;;;;;23.65;13.68;;;4.00;65.00;;;;;;4974015;28;20510;-57
2023/03/07 04:30:51;;;;;;;13.48;8.70;;;4.00;65.00;;;;;;4962043;28;20046;-60
2023/03/07 04:33:17;;;;;;;18.23;11.43;;;4.00;65.10;;;;;;4963048;28;20583;-59
2023/03/07 04:35:44;;;;;;;20.80;13.30;;;4.00;65.10;;;;;;4964468;28;20069;-57
2023/03/07 04:38:11;;;;;;;16.50;9.95;;;4.00;65.20;;;;;;4964686;28;20062;-57
2023/03/07 04:40:36;;;;;;;16.35;9.32;;;4.00;65.30;;;;;;4967420;28;20058;-60
2023/03/07 04:43:04;;;;;;;16.67;10.23;;;4.00;65.30;;;;;;4965227;28;20114;-60
2023/03/07 04:45:31;;;;;;;16.20;9.90;;;4.00;65.30;;;;;;4962771;28;20043;-60
2023/03/07 04:47:56;;;;;;;15.57;9.15;;;4.00;65.50;;;;;;4946961;28;20043;-60
2023/03/07 04:50:22;;;;;;;14.98;9.40;;;3.90;65.40;;;;;;4968545;28;20045;-58
2023/03/07 04:52:49;;;;;;;16.52;9.70;;;3.90;65.40;;;;;;4970758;28;20100;-59
2023/03/07 04:55:15;;;;;;;16.10;9.05;;;3.90;65.40;;;;;;4967954;28;20480;-60
2023/03/07 04:57:40;;;;;;;14.07;8.18;;;3.90;65.40;;;;;;4968771;28;20046;-59
2023/03/07 05:00:08;;;;;;;14.35;8.35;;;3.90;65.60;;;;;;4962550;28;20035;-61
2023/03/07 05:02:34;;;;;;;14.25;7.55;;;3.90;65.60;;;;;;4964535;28;20070;-59
2023/03/07 05:05:00;;;;;;;12.45;7.88;;;3.80;65.60;;;;;;4962736;28;20042;-58
2023/03/07 05:07:28;;;;;;;14.02;7.72;;;3.80;65.70;;;;;;4973631;28;20205;-60
2023/03/07 05:09:54;;;;;;;14.05;7.70;;;3.80;65.80;;;;;;4972122;28;20093;-61
2023/03/07 05:12:20;;;;;;;13.18;7.93;;;3.70;65.90;;;;;;4965245;28;20287;-59
2023/03/07 05:14:45;;;;;;;13.23;7.65;;;3.70;66.00;;;;;;4962262;28;20035;-58
2023/03/07 05:17:11;;;;;;;15.40;7.97;;;3.70;66.10;;;;;;4972514;28;20034;-60
2023/03/07 05:19:36;;;;;;;12.30;7.60;;;3.70;66.30;;;;;;4966911;28;20039;-59
2023/03/07 05:22:02;;;;;;;12.35;7.53;;;3.70;66.30;;;;;;4966668;28;20077;-57
2023/03/07 05:24:28;;;;;;;13.27;7.20;;;3.70;66.30;;;;;;4969183;28;20075;-57
2023/03/07 05:26:53;;;;;;;13.20;7.85;;;3.70;66.40;;;;;;4969056;28;20038;-58
2023/03/07 05:29:19;;;;;;;16.05;8.77;;;3.70;66.50;;;;;;4964782;28;20030;-60
2023/03/07 05:31:44;;;;;;;14.65;7.85;;;3.60;66.50;;;;;;4963943;28;20035;-59
2023/03/07 05:34:10;;;;;;;16.05;8.52;;;3.60;66.60;;;;;;4963207;28;20042;-61
2023/03/07 05:36:36;;;;;;;12.57;7.63;;;3.60;66.60;;;;;;4961795;28;20030;-61
2023/03/07 05:39:02;;;;;;;12.23;7.63;;;3.60;66.80;;;;;;4956934;28;20046;-61
2023/03/07 05:41:27;;;;;;;14.65;8.35;;;3.60;66.80;;;;;;4962712;28;20421;-61
2023/03/07 05:43:54;;;;;;;17.35;9.80;;;3.60;66.90;;;;;;4969501;28;20043;-60
2023/03/07 05:46:20;;;;;;;15.93;9.93;;;3.60;67.00;;;;;;4976403;28;20064;-60
2023/03/07 05:48:46;;;;;;;14.60;8.98;;;3.60;67.00;;;;;;4977778;28;20053;-58
2023/03/07 05:51:12;;;;;;;13.27;8.35;;;3.60;67.20;;;;;;4978089;28;20027;-59
2023/03/07 05:53:37;;;;;;;15.15;8.10;;;3.60;67.20;;;;;;4976630;28;20038;-59
2023/03/07 05:56:03;;;;;;;14.38;8.15;;;3.60;67.20;;;;;;4976311;28;20046;-59
2023/03/07 05:58:29;;;;;;;13.80;7.78;;;3.60;67.20;;;;;;4975790;28;20045;-60
2023/03/07 06:00:54;;;;;;;14.00;8.00;;;3.60;67.20;;;;;;4977837;28;20035;-58
2023/03/07 06:03:20;;;;;;;14.05;8.35;;;3.60;67.20;;;;;;4978216;28;20100;-58
2023/03/07 06:05:49;;;;;;;13.07;7.65;;;3.70;67.30;;;;;;4975855;28;20039;-57
2023/03/07 06:08:14;;;;;;;13.57;7.57;;;3.70;67.30;;;;;;4977840;28;20035;-58
2023/03/07 06:10:41;;;;;;;15.85;8.05;;;3.70;67.30;;;;;;4977950;28;20038;-59
2023/03/07 06:13:19;;;;;;;14.52;7.60;;;3.70;67.20;;;;;;4975797;28;20066;-60
2023/03/07 06:15:48;;;;;;;14.10;7.60;;;3.70;67.30;;;;;;4977945;28;22090;-60
2023/03/07 06:18:14;;;;;;;13.63;8.35;;;3.70;67.30;;;;;;4974924;28;20034;-59
2023/03/07 06:20:39;;;;;;;29.10;14.57;;;3.70;67.30;;;;;;4977360;28;20092;-58
2023/03/07 06:23:05;;;;;;;31.92;14.40;;;3.70;67.30;;;;;;4977866;28;20030;-60
2023/03/07 06:25:31;;;;;;;35.33;16.55;;;3.80;67.30;;;;;;4975674;28;20034;-59
2023/03/07 06:27:59;;;;;;;18.27;9.55;;;3.80;67.30;;;;;;4976588;28;20039;-59
2023/03/07 06:30:25;;;;;;;14.57;8.85;;;3.80;67.20;;;;;;4974263;28;20047;-58
2023/03/07 06:32:51;;;;;;;15.85;8.65;;;3.80;67.30;;;;;;4977778;28;20572;-59
2023/03/07 06:35:17;;;;;;;13.98;7.45;;;3.80;67.30;;;;;;4976735;28;20141;-60
2023/03/07 06:37:42;;;;;;;17.20;8.77;;;3.80;67.20;;;;;;4978059;28;20057;-58
2023/03/07 06:40:09;;;;;;;14.27;8.00;;;3.80;67.30;;;;;;4976321;28;20059;-60
2023/03/07 06:42:35;;;;;;;18.83;8.60;;;3.80;67.20;;;;;;4975631;28;20038;-59
2023/03/07 06:45:01;;;;;;;15.18;9.02;;;3.80;67.20;;;;;;4977773;28;20038;-60
2023/03/07 06:47:26;;;;;;;14.77;9.60;;;3.70;67.20;;;;;;4977946;28;20038;-60
2023/03/07 06:49:52;;;;;;;19.15;8.80;;;3.70;67.20;;;;;;4979840;28;20031;-59
2023/03/07 06:52:18;;;;;;;16.63;9.05;;;3.70;67.30;;;;;;4977847;28;20497;-59
2023/03/07 06:54:43;;;;;;;26.85;12.77;;;3.70;67.40;;;;;;4973178;28;20042;-59
2023/03/07 06:57:09;;;;;;;19.25;9.95;;;3.70;67.40;;;;;;4977034;28;20035;-60
2023/03/07 06:59:35;;;;;;;15.43;9.13;;;3.70;67.50;;;;;;4975544;28;20352;-59
2023/03/07 07:02:02;;;;;;;13.93;8.27;;;3.70;67.60;;;;;;4978221;28;20037;-58
2023/03/07 07:04:27;;;;;;;14.23;8.27;;;3.70;67.60;;;;;;4975409;28;20525;-57
2023/03/07 07:06:53;;;;;;;17.45;9.02;;;3.70;67.50;;;;;;4976608;28;20039;-59
2023/03/07 07:09:19;;;;;;;16.90;9.55;;;3.70;67.60;;;;;;4976187;28;20035;-56
2023/03/07 07:11:44;;;;;;;15.73;9.20;;;3.70;67.70;;;;;;4977201;28;20086;-55
2023/03/07 07:14:10;;;;;;;18.95;9.35;;;3.70;67.70;;;;;;4975822;28;20459;-59
2023/03/07 07:16:36;;;;;;;15.32;8.48;;;3.70;67.70;;;;;;4975422;28;20496;-60
2023/03/07 07:19:01;;;;;;;15.98;9.10;;;3.80;67.80;;;;;;4976530;28;20039;-59
2023/03/07 07:21:27;;;;;;;16.33;8.43;;;3.80;67.90;;;;;;4976258;28;20031;-59
2023/03/07 07:23:55;;;;;;;17.20;8.60;;;3.80;67.90;;;;;;4976705;28;20096;-60
2023/03/07 07:26:21;;;;;;;15.77;8.68;;;3.80;68.00;;;;;;4975740;28;20038;-61
2023/03/07 07:28:46;;;;;;;15.38;8.90;;;3.90;67.90;;;;;;4976585;28;20031;-60
2023/03/07 07:31:12;;;;;;;15.75;8.85;;;3.90;68.00;;;;;;4976024;28;20046;-60
2023/03/07 07:33:38;;;;;;;19.48;8.90;;;3.90;68.00;;;;;;4975740;28;20402;-61
2023/03/07 07:36:04;;;;;;;14.68;8.68;;;4.00;68.10;;;;;;4976787;28;20078;-60
2023/03/07 07:38:29;;;;;;;18.52;8.95;;;4.00;68.20;;;;;;4974259;28;20061;-61
2023/03/07 07:40:55;;;;;;;17.00;9.70;;;4.00;68.00;;;;;;4975226;28;20066;-60
2023/03/07 07:43:20;;;;;;;14.88;9.20;;;4.10;68.00;;;;;;4976076;28;20051;-60
2023/03/07 07:45:46;;;;;;;13.82;8.35;;;4.10;67.90;;;;;;4976384;28;20046;-61
2023/03/07 07:48:12;;;;;;;21.55;12.02;;;4.20;67.80;;;;;;4975896;28;20038;-59
2023/03/07 07:50:37;;;;;;;15.88;9.80;;;4.20;67.90;;;;;;4975898;28;20038;-61
2023/03/07 07:53:03;;;;;;;15.52;9.68;;;4.20;67.90;;;;;;4976479;28;20122;-60
2023/03/07 07:55:29;;;;;;;16.02;9.10;;;4.30;67.90;;;;;;4977477;28;20045;-61
2023/03/07 07:57:54;;;;;;;17.20;9.15;;;4.40;67.80;;;;;;4963957;28;20078;-60
2023/03/07 08:00:20;;;;;;;16.63;8.90;;;4.40;67.60;;;;;;4974972;28;20105;-59
2023/03/07 08:02:48;;;;;;;15.65;9.65;;;4.50;67.50;;;;;;4974502;28;20044;-58
2023/03/07 08:05:14;;;;;;;16.23;8.25;;;4.50;67.30;;;;;;4974490;28;20677;-60
2023/03/07 08:07:40;;;;;;;15.45;8.35;;;4.60;67.20;;;;;;4975697;28;20521;-61
2023/03/07 08:10:06;;;;;;;20.38;10.20;;;4.60;66.70;;;;;;4974982;28;20113;-58
2023/03/07 08:12:32;;;;;;;16.85;10.50;;;4.60;66.60;;;;;;4973837;28;20038;-60
2023/03/07 08:14:58;;;;;;;18.75;10.50;;;4.60;66.50;;;;;;4975657;28;20196;-59
2023/03/07 08:17:23;;;;;;;13.23;8.77;;;4.70;66.60;;;;;;4974595;28;20089;-58
2023/03/07 08:19:49;;;;;;;13.48;8.23;;;4.70;66.60;;;;;;4976415;28;20046;-61
2023/03/07 08:22:15;;;;;;;13.48;8.55;;;4.70;66.50;;;;;;4974667;28;20078;-59
2023/03/07 08:24:41;;;;;;;15.35;8.55;;;4.80;66.60;;;;;;4972552;28;20576;-59
2023/03/07 08:27:07;;;;;;;16.20;8.82;;;4.80;66.50;;;;;;4976768;28;20034;-59
2023/03/07 08:29:34;;;;;;;15.07;9.43;;;4.80;66.50;;;;;;4974276;28;20047;-60
2023/03/07 08:31:59;;;;;;;16.30;8.93;;;4.80;66.30;;;;;;4974774;28;20097;-59
2023/03/07 08:34:25;;;;;;;18.05;10.73;;;4.90;66.30;;;;;;4975219;28;20077;-57
2023/03/07 08:36:51;;;;;;;18.25;10.00;;;4.90;66.10;;;;;;4974390;28;20039;-61
2023/03/07 08:39:17;;;;;;;16.25;8.98;;;4.90;66.10;;;;;;4974275;28;20036;-57
2023/03/07 08:41:43;;;;;;;13.70;8.23;;;5.00;66.20;;;;;;4972538;28;20089;-60
2023/03/07 08:44:08;;;;;;;14.10;8.13;;;5.00;67.00;;;;;;4976073;28;20042;-61
2023/03/07 08:46:34;;;;;;;13.23;7.53;;;5.00;66.10;;;;;;4973834;28;20041;-59
2023/03/07 08:49:00;;;;;;;15.38;7.50;;;5.10;66.00;;;;;;4974492;28;20038;-59
2023/03/07 08:51:25;;;;;;;14.32;8.30;;;5.10;65.90;;;;;;4973871;28;20121;-58
2023/03/07 08:53:51;;;;;;;13.77;7.45;;;5.10;65.50;;;;;;4973739;28;20046;-57
2023/03/07 08:56:18;;;;;;;13.73;7.85;;;5.20;65.50;;;;;;4970760;28;20157;-57
2023/03/07 08:58:44;;;;;;;13.77;7.57;;;5.20;65.30;;;;;;4970968;28;20479;-60
2023/03/07 09:01:11;;;;;;;16.52;8.27;;;5.20;65.10;;;;;;4968142;28;20442;-60
2023/03/07 09:03:37;;;;;;;16.50;8.05;;;5.30;65.10;;;;;;4968344;28;20036;-61
2023/03/07 09:06:04;;;;;;;13.98;7.97;;;5.30;65.10;;;;;;4975906;28;20042;-58
2023/03/07 09:08:29;;;;;;;13.40;8.00;;;5.40;64.80;;;;;;4973926;28;20045;-59
2023/03/07 09:10:58;;;;;;;12.52;8.15;;;5.40;64.60;;;;;;4974253;28;20038;-59
2023/03/07 09:13:24;;;;;;;11.85;7.45;;;5.50;64.40;;;;;;4975511;28;20045;-61
2023/03/07 09:15:49;;;;;;;12.15;7.50;;;5.50;64.40;;;;;;4974637;28;20038;-58
2023/03/07 09:18:15;;;;;;;12.60;7.50;;;5.50;64.40;;;;;;4972964;28;20089;-60
2023/03/07 09:20:41;;;;;;;13.75;7.10;;;5.50;64.30;;;;;;4972843;28;20030;-60
2023/03/07 09:23:07;;;;;;;11.95;7.15;;;5.60;64.10;;;;;;4976279;28;20046;-58
2023/03/07 09:25:33;;;;;;;10.80;6.90;;;5.60;64.00;;;;;;4975508;28;20589;-58
2023/03/07 09:27:58;;;;;;;10.70;7.30;;;5.60;64.00;;;;;;4975294;28;20134;-59
2023/03/07 09:30:26;;;;;;;13.25;7.65;;;5.70;64.00;;;;;;4976060;28;20145;-60
2023/03/07 09:32:51;;;;;;;18.33;10.00;;;5.70;63.80;;;;;;4973368;28;20125;-59
2023/03/07 09:35:17;;;;;;;11.88;7.32;;;5.70;63.50;;;;;;4974776;28;20141;-61
2023/03/07 09:37:42;;;;;;;12.93;7.13;;;5.80;63.20;;;;;;4974517;28;20503;-59
2023/03/07 09:40:18;;;;;;;14.80;7.90;;;5.80;63.00;;;;;;4971667;28;20130;-61
2023/03/07 09:43:18;;;;;;;11.27;7.40;;;5.80;62.60;;;;;;4975444;28;20434;-60
2023/03/07 09:45:48;;;;;;;14.88;7.63;;;5.80;62.50;;;;;;4974285;28;20502;-60
2023/03/07 09:48:51;;;;;;;12.73;7.55;;;5.90;62.00;;;;;;4973859;28;20066;-61
2023/03/07 09:51:31;;;;;;;16.48;10.25;;;5.90;62.30;;;;;;4974628;28;20039;-58
2023/03/07 09:54:14;;;;;;;20.20;9.90;;;5.90;62.30;;;;;;4976639;28;20043;-58
2023/03/07 09:56:45;;;;;;;13.70;7.97;;;5.90;62.00;;;;;;4970695;28;20392;-58
2023/03/07 09:59:23;;;;;;;12.93;7.40;;;6.00;61.80;;;;;;4974405;28;20054;-60
2023/03/07 10:02:22;;;;;;;11.77;7.78;;;6.00;62.10;;;;;;4974523;28;20042;-61
2023/03/07 10:05:01;;;;;;;14.25;7.60;;;6.10;61.10;;;;;;4975101;28;20050;-58
2023/03/07 10:07:28;;;;;;;12.00;7.95;;;6.10;61.00;;;;;;4973730;28;20046;-61
2023/03/07 10:09:58;;;;;;;12.63;7.25;;;6.10;61.00;;;;;;4972769;28;20338;-59
2023/03/07 10:12:39;;;;;;;11.32;7.65;;;6.10;60.60;;;;;;4968830;28;20038;-60
2023/03/07 10:15:35;;;;;;;11.82;7.40;;;6.20;61.10;;;;;;4974040;28;20034;-58
2023/03/07 10:18:22;;;;;;;12.40;7.68;;;6.20;60.70;;;;;;4973233;28;20050;-61
2023/03/07 10:21:00;;;;;;;12.27;7.20;;;6.30;60.70;;;;;;4975138;28;20266;-60
2023/03/07 10:23:58;;;;;;;16.67;7.72;;;6.30;60.70;;;;;;4975521;28;20042;-61
2023/03/07 10:26:49;;;;;;;19.25;7.75;;;6.40;59.80;;;;;;4945207;28;20418;-59
2023/03/07 10:29:26;;;;;;;14.02;6.93;;;6.40;60.00;;;;;;4972516;28;20062;-60
2023/03/07 10:31:55;;;;;;;11.70;7.07;;;6.50;60.70;;;;;;4976265;28;20042;-58
2023/03/07 10:34:26;;;;;;;13.98;7.07;;;6.50;60.40;;;;;;4978482;28;20038;-60
2023/03/07 10:36:55;;;;;;;12.55;8.00;;;6.50;60.40;;;;;;4976440;28;20046;-60
2023/03/07 10:39:36;;;;;;;11.60;7.80;;;6.60;60.00;;;;;;4975809;28;20049;-59
2023/03/07 10:42:02;;;;;;;12.63;7.95;;;6.60;59.90;;;;;;4979013;28;20030;-60
2023/03/07 10:44:32;;;;;;;16.83;9.90;;;6.60;60.10;;;;;;4977079;28;20986;-59
2023/03/07 10:46:58;;;;;;;15.35;8.77;;;6.60;59.20;;;;;;4977882;28;20035;-60
2023/03/07 10:49:31;;;;;;;18.10;9.80;;;6.70;59.80;;;;;;4981029;28;20026;-58
2023/03/07 10:52:15;;;;;;;14.70;8.07;;;6.70;59.20;;;;;;4977570;28;20089;-61
2023/03/07 10:54:41;;;;;;;13.83;8.00;;;6.70;59.60;;;;;;4975044;28;20042;-59
2023/03/07 10:57:09;;;;;;;12.93;8.13;;;6.70;59.90;;;;;;4977630;28;20944;-60
2023/03/07 10:59:42;;;;;;;13.00;8.25;;;6.80;59.70;;;;;;4976742;28;20445;-61
2023/03/07 11:02:39;;;;;;;17.52;9.38;;;6.80;59.00;;;;;;4978727;28;20038;-60
2023/03/07 11:05:24;;;;;;;15.95;9.18;;;6.80;58.70;;;;;;4973457;28;20034;-61
2023/03/07 11:07:49;;;;;;;20.38;11.63;;;6.90;58.70;;;;;;4978522;28;20069;-58
2023/03/07 11:10:38;;;;;;;14.07;8.88;;;6.90;59.10;;;;;;4978013;28;20038;-59
2023/03/07 11:13:14;;;;;;;14.68;7.72;;;6.90;58.60;;;;;;4977222;28;20042;-59
2023/03/07 11:15:39;;;;;;;12.15;7.70;;;6.90;58.80;;;;;;4978782;28;20513;-61
2023/03/07 11:18:30;;;;;;;17.88;8.95;;;7.00;59.20;;;;;;4975351;28;20069;-58
2023/03/07 11:20:57;;;;;;;15.25;8.40;;;6.90;58.80;;;;;;4978098;28;20125;-60
2023/03/07 11:23:30;;;;;;;14.60;7.93;;;7.00;59.00;;;;;;4977160;28;20030;-61
2023/03/07 11:26:12;;;;;;;14.48;8.02;;;7.00;58.30;;;;;;4976608;28;20043;-60
2023/03/07 11:28:38;;;;;;;13.23;7.78;;;7.10;58.10;;;;;;4975229;28;20132;-58
2023/03/07 11:31:30;;;;;;;13.27;8.52;;;7.10;58.10;;;;;;4976736;28;20046;-60
2023/03/07 11:34:02;;;;;;;12.70;8.23;;;7.10;56.40;;;;;;4978402;28;20038;-61
2023/03/07 11:36:31;;;;;;;16.30;7.88;;;7.20;57.50;;;;;;4975850;28;20038;-60
2023/03/07 11:39:13;;;;;;;13.73;8.65;;;7.20;57.70;;;;;;4977116;28;20058;-59
2023/03/07 11:41:42;;;;;;;12.90;7.93;;;7.20;57.90;;;;;;4976807;28;20121;-61
2023/03/07 11:44:38;;;;;;;13.65;8.18;;;7.30;58.10;;;;;;4975828;28;20113;-60
2023/03/07 11:47:13;;;;;;;12.05;8.02;;;7.40;57.80;;;;;;4977681;28;20050;-60
2023/03/07 11:49:54;;;;;;;13.93;8.10;;;7.50;58.00;;;;;;4974044;28;20522;-59
2023/03/07 11:52:31;;;;;;;11.95;8.07;;;7.60;57.20;;;;;;4977419;28;20035;-59
2023/03/07 11:55:15;;;;;;;14.57;7.35;;;7.60;57.80;;;;;;4973425;28;20513;-60
2023/03/07 11:58:00;;;;;;;14.37;8.07;;;7.70;57.50;;;;;;4977236;28;20041;-59
2023/03/07 12:00:47;;;;;;;16.85;8.00;;;7.80;56.40;;;;;;4975592;28;20038;-60
2023/03/07 12:03:18;;;;;;;12.15;7.70;;;7.90;56.40;;;;;;4976715;28;20061;-58
2023/03/07 12:05:59;;;;;;;14.00;8.05;;;7.90;56.80;;;;;;4975094;28;20196;-58
2023/03/07 12:08:44;;;;;;;13.07;8.23;;;8.00;56.20;;;;;;4976690;28;20045;-60
2023/03/07 12:11:22;;;;;;;11.52;7.20;;;8.00;56.10;;;;;;4973887;28;20031;-58
2023/03/07 12:14:07;;;;;;;12.50;7.35;;;8.10;56.90;;;;;;4978560;28;20038;-60
2023/03/07 12:17:00;;;;;;;11.95;7.22;;;8.20;56.30;;;;;;4975352;28;20050;-60
2023/03/07 12:19:47;;;;;;;16.23;7.82;;;8.30;56.10;;;;;;4973990;28;20138;-61
2023/03/07 12:22:21;;;;;;;12.57;7.70;;;8.40;56.60;;;;;;4976544;28;20114;-57
2023/03/07 12:25:12;;;;;;;11.93;7.95;;;8.50;56.80;;;;;;4973968;28;20054;-58
2023/03/07 12:27:44;;;;;;;15.95;7.97;;;8.60;55.80;;;;;;4976788;28;20027;-58
2023/03/07 12:30:15;;;;;;;12.07;7.28;;;8.60;56.10;;;;;;4976250;28;20085;-58
2023/03/07 12:32:41;;;;;;;14.60;7.45;;;8.70;56.10;;;;;;4974517;28;20034;-60
2023/03/07 12:35:30;;;;;;;13.38;8.10;;;8.70;57.00;;;;;;4976813;28;20066;-59
2023/03/07 12:38:09;;;;;;;11.48;7.63;;;8.80;54.70;;;;;;4975462;28;20382;-59
2023/03/07 12:40:40;;;;;;;11.15;7.40;;;8.80;54.00;;;;;;4975130;28;20117;-57
2023/03/07 12:43:32;;;;;;;11.05;7.38;;;8.90;54.70;;;;;;4976891;28;20186;-58
2023/03/07 12:46:24;;;;;;;11.75;7.68;;;8.90;55.20;;;;;;4974081;28;20412;-60
2023/03/07 12:49:12;;;;;;;14.82;7.75;;;8.90;54.30;;;;;;4966011;28;20125;-59
2023/03/07 12:51:48;;;;;;;10.23;7.32;;;9.00;55.20;;;;;;4975326;28;20687;-59
2023/03/07 12:54:31;;;;;;;12.10;7.60;;;9.00;55.00;;;;;;4972916;28;20049;-60
2023/03/07 12:57:05;;;;;;;12.50;8.65;;;9.00;54.20;;;;;;4975731;28;20038;-60
2023/03/07 12:59:35;;;;;;;11.38;7.88;;;9.10;54.50;;;;;;4973526;28;20039;-57